sensor_id;sensor_type;location;lat;lon;timestamp;temperature;humidity
32428;DHT22;18882;50.952;4.366;2022-11-20T00:01:09;4.60;99.90
32428;DHT22;18882;50.952;4.366;2022-11-20T00:03:35;4.70;99.90
32428;DHT22;18882;50.952;4.366;2022-11-20T00:06:03;4.50;99.90
32428;DHT22;18882;50.952;4.366;2022-11-20T00:08:29;4.50;99.90
32428;DHT22;18882;50.952;4.366;2022-11-20T00:10:55;4.70;99.90
32428;DHT22;18882;50.952;4.366;2022-11-20T00:13:20;4.80;99.90
32428;DHT22;18882;50.952;4.366;2022-11-20T00:15:46;5.10;99.90
32428;DHT22;18882;50.952;4.366;2022-11-20T00:18:12;5.20;99.90
32428;DHT22;18882;50.952;4.366;2022-11-20T00:20:37;5.30;99.90
32428;DHT22;18882;50.952;4.366;2022-11-20T00:23:03;5.30;99.90
32428;DHT22;18882;50.952;4.366;2022-11-20T00:25:28;4.90;99.90
32428;DHT22;18882;50.952;4.366;2022-11-20T00:27:54;4.90;99.90
32428;DHT22;18882;50.952;4.366;2022-11-20T00:30:20;4.90;99.90
32428;DHT22;18882;50.952;4.366;2022-11-20T00:32:45;5.10;99.90
32428;DHT22;18882;50.952;4.366;2022-11-20T00:35:11;5.30;99.90
32428;DHT22;18882;50.952;4.366;2022-11-20T00:37:36;5.40;99.90
32428;DHT22;18882;50.952;4.366;2022-11-20T00:40:02;5.50;99.90
32428;DHT22;18882;50.952;4.366;2022-11-20T00:42:28;5.40;99.90
32428;DHT22;18882;50.952;4.366;2022-11-20T00:44:54;5.50;99.90
32428;DHT22;18882;50.952;4.366;2022-11-20T00:47:19;5.50;99.90
32428;DHT22;18882;50.952;4.366;2022-11-20T00:49:45;5.30;99.90
32428;DHT22;18882;50.952;4.366;2022-11-20T00:52:10;5.20;99.90
32428;DHT22;18882;50.952;4.366;2022-11-20T00:54:36;5.00;99.90
32428;DHT22;18882;50.952;4.366;2022-11-20T00:57:02;4.50;99.90
32428;DHT22;18882;50.952;4.366;2022-11-20T00:59:27;4.30;99.90
32428;DHT22;18882;50.952;4.366;2022-11-20T01:01:53;4.30;99.90
32428;DHT22;18882;50.952;4.366;2022-11-20T01:04:19;4.40;99.90
32428;DHT22;18882;50.952;4.366;2022-11-20T01:06:44;4.30;99.90
32428;DHT22;18882;50.952;4.366;2022-11-20T01:09:12;4.20;99.90
32428;DHT22;18882;50.952;4.366;2022-11-20T01:11:41;4.10;99.90
32428;DHT22;18882;50.952;4.366;2022-11-20T01:14:10;4.10;99.90
32428;DHT22;18882;50.952;4.366;2022-11-20T01:16:39;4.30;99.90
32428;DHT22;18882;50.952;4.366;2022-11-20T01:19:07;4.40;99.90
32428;DHT22;18882;50.952;4.366;2022-11-20T01:21:35;4.60;99.90
32428;DHT22;18882;50.952;4.366;2022-11-20T01:24:03;4.70;99.90
32428;DHT22;18882;50.952;4.366;2022-11-20T01:26:31;4.80;99.90
32428;DHT22;18882;50.952;4.366;2022-11-20T01:28:58;5.00;99.90
32428;DHT22;18882;50.952;4.366;2022-11-20T01:31:29;5.20;99.90
32428;DHT22;18882;50.952;4.366;2022-11-20T01:33:57;5.10;99.90
32428;DHT22;18882;50.952;4.366;2022-11-20T01:36:25;4.80;99.90
32428;DHT22;18882;50.952;4.366;2022-11-20T01:38:55;4.90;99.90
32428;DHT22;18882;50.952;4.366;2022-11-20T01:41:21;5.10;99.90
32428;DHT22;18882;50.952;4.366;2022-11-20T01:44:05;5.20;99.90
32428;DHT22;18882;50.952;4.366;2022-11-20T01:46:36;5.20;99.90
32428;DHT22;18882;50.952;4.366;2022-11-20T01:52:03;5.30;99.90
32428;DHT22;18882;50.952;4.366;2022-11-20T01:54:42;5.30;99.90
32428;DHT22;18882;50.952;4.366;2022-11-20T01:57:10;5.00;99.90
32428;DHT22;18882;50.952;4.366;2022-11-20T01:59:41;4.90;99.90
32428;DHT22;18882;50.952;4.366;2022-11-20T02:02:09;5.00;99.90
32428;DHT22;18882;50.952;4.366;2022-11-20T02:04:35;5.10;99.90
32428;DHT22;18882;50.952;4.366;2022-11-20T02:07:01;5.40;99.90
32428;DHT22;18882;50.952;4.366;2022-11-20T02:09:28;5.50;99.90
32428;DHT22;18882;50.952;4.366;2022-11-20T02:11:54;5.50;99.90
32428;DHT22;18882;50.952;4.366;2022-11-20T02:14:22;5.50;99.90
32428;DHT22;18882;50.952;4.366;2022-11-20T02:16:49;5.50;99.90
32428;DHT22;18882;50.952;4.366;2022-11-20T02:19:24;5.40;99.90
32428;DHT22;18882;50.952;4.366;2022-11-20T02:24:25;5.40;99.90
32428;DHT22;18882;50.952;4.366;2022-11-20T02:27:06;5.50;99.90
32428;DHT22;18882;50.952;4.366;2022-11-20T02:29:52;5.60;99.90
32428;DHT22;18882;50.952;4.366;2022-11-20T02:34:48;5.40;99.90
32428;DHT22;18882;50.952;4.366;2022-11-20T02:37:14;5.50;99.90
32428;DHT22;18882;50.952;4.366;2022-11-20T02:39:40;5.50;99.90
32428;DHT22;18882;50.952;4.366;2022-11-20T02:42:05;5.50;99.90
32428;DHT22;18882;50.952;4.366;2022-11-20T02:44:31;5.50;99.90
32428;DHT22;18882;50.952;4.366;2022-11-20T02:46:58;5.60;99.90
32428;DHT22;18882;50.952;4.366;2022-11-20T02:49:24;5.70;99.90
32428;DHT22;18882;50.952;4.366;2022-11-20T02:51:50;5.70;99.90
32428;DHT22;18882;50.952;4.366;2022-11-20T02:54:15;5.70;99.90
32428;DHT22;18882;50.952;4.366;2022-11-20T02:56:42;5.70;99.90
32428;DHT22;18882;50.952;4.366;2022-11-20T02:59:08;5.50;99.90
32428;DHT22;18882;50.952;4.366;2022-11-20T03:01:34;5.50;99.90
32428;DHT22;18882;50.952;4.366;2022-11-20T03:04:00;5.50;99.90
32428;DHT22;18882;50.952;4.366;2022-11-20T03:06:26;5.60;99.90
32428;DHT22;18882;50.952;4.366;2022-11-20T03:08:51;5.60;99.90
32428;DHT22;18882;50.952;4.366;2022-11-20T03:11:17;5.60;99.90
32428;DHT22;18882;50.952;4.366;2022-11-20T03:13:43;5.80;99.90
32428;DHT22;18882;50.952;4.366;2022-11-20T03:16:14;5.80;99.90
32428;DHT22;18882;50.952;4.366;2022-11-20T03:18:41;5.70;99.90
32428;DHT22;18882;50.952;4.366;2022-11-20T03:21:07;5.70;99.90
32428;DHT22;18882;50.952;4.366;2022-11-20T03:23:34;5.70;99.90
32428;DHT22;18882;50.952;4.366;2022-11-20T03:26:15;5.60;99.90
32428;DHT22;18882;50.952;4.366;2022-11-20T03:28:45;5.60;99.90
32428;DHT22;18882;50.952;4.366;2022-11-20T03:31:14;5.60;99.90
32428;DHT22;18882;50.952;4.366;2022-11-20T03:33:41;5.50;99.90
32428;DHT22;18882;50.952;4.366;2022-11-20T03:36:10;5.40;99.90
32428;DHT22;18882;50.952;4.366;2022-11-20T03:38:36;5.40;99.90
32428;DHT22;18882;50.952;4.366;2022-11-20T03:41:14;5.50;99.90
32428;DHT22;18882;50.952;4.366;2022-11-20T03:43:40;5.50;99.90
32428;DHT22;18882;50.952;4.366;2022-11-20T03:46:07;5.40;99.90
32428;DHT22;18882;50.952;4.366;2022-11-20T03:48:33;5.30;99.90
32428;DHT22;18882;50.952;4.366;2022-11-20T03:51:13;5.40;99.90
32428;DHT22;18882;50.952;4.366;2022-11-20T03:53:40;5.40;99.90
32428;DHT22;18882;50.952;4.366;2022-11-20T03:56:07;5.60;99.90
32428;DHT22;18882;50.952;4.366;2022-11-20T03:58:34;5.60;99.90
32428;DHT22;18882;50.952;4.366;2022-11-20T04:01:07;5.60;99.90
32428;DHT22;18882;50.952;4.366;2022-11-20T04:03:33;5.60;99.90
32428;DHT22;18882;50.952;4.366;2022-11-20T04:08:32;5.60;99.90
32428;DHT22;18882;50.952;4.366;2022-11-20T04:11:12;5.50;99.90
32428;DHT22;18882;50.952;4.366;2022-11-20T04:13:38;5.40;99.90
32428;DHT22;18882;50.952;4.366;2022-11-20T04:16:05;5.40;99.90
32428;DHT22;18882;50.952;4.366;2022-11-20T04:18:31;5.30;99.90
32428;DHT22;18882;50.952;4.366;2022-11-20T04:20:59;5.20;99.90
32428;DHT22;18882;50.952;4.366;2022-11-20T04:23:25;5.40;99.90
32428;DHT22;18882;50.952;4.366;2022-11-20T04:25:51;5.40;99.90
32428;DHT22;18882;50.952;4.366;2022-11-20T04:28:17;5.40;99.90
32428;DHT22;18882;50.952;4.366;2022-11-20T04:30:43;5.30;99.90
32428;DHT22;18882;50.952;4.366;2022-11-20T04:33:08;5.00;99.90
32428;DHT22;18882;50.952;4.366;2022-11-20T04:35:34;4.90;99.90
32428;DHT22;18882;50.952;4.366;2022-11-20T04:38:00;4.90;99.90
32428;DHT22;18882;50.952;4.366;2022-11-20T04:40:27;5.10;99.90
32428;DHT22;18882;50.952;4.366;2022-11-20T04:42:52;5.10;99.90
32428;DHT22;18882;50.952;4.366;2022-11-20T04:45:18;5.00;99.90
32428;DHT22;18882;50.952;4.366;2022-11-20T04:47:43;4.90;99.90
32428;DHT22;18882;50.952;4.366;2022-11-20T04:50:09;5.10;99.90
32428;DHT22;18882;50.952;4.366;2022-11-20T04:52:35;5.20;99.90
32428;DHT22;18882;50.952;4.366;2022-11-20T04:55:00;5.40;99.90
32428;DHT22;18882;50.952;4.366;2022-11-20T04:57:26;5.40;99.90
32428;DHT22;18882;50.952;4.366;2022-11-20T04:59:52;5.30;99.90
32428;DHT22;18882;50.952;4.366;2022-11-20T05:02:17;5.40;99.90
32428;DHT22;18882;50.952;4.366;2022-11-20T05:04:43;5.40;99.90
32428;DHT22;18882;50.952;4.366;2022-11-20T05:07:08;5.30;99.90
32428;DHT22;18882;50.952;4.366;2022-11-20T05:09:34;5.30;99.90
32428;DHT22;18882;50.952;4.366;2022-11-20T05:12:00;5.40;99.90
32428;DHT22;18882;50.952;4.366;2022-11-20T05:14:25;5.30;99.90
32428;DHT22;18882;50.952;4.366;2022-11-20T05:16:51;5.50;99.90
32428;DHT22;18882;50.952;4.366;2022-11-20T05:19:17;5.60;99.90
32428;DHT22;18882;50.952;4.366;2022-11-20T05:21:42;5.70;99.90
32428;DHT22;18882;50.952;4.366;2022-11-20T05:24:08;5.90;99.90
32428;DHT22;18882;50.952;4.366;2022-11-20T05:26:34;5.70;99.90
32428;DHT22;18882;50.952;4.366;2022-11-20T05:28:59;5.60;99.90
32428;DHT22;18882;50.952;4.366;2022-11-20T05:31:25;5.50;99.90
32428;DHT22;18882;50.952;4.366;2022-11-20T05:33:51;5.50;99.90
32428;DHT22;18882;50.952;4.366;2022-11-20T05:36:17;5.60;99.90
32428;DHT22;18882;50.952;4.366;2022-11-20T05:38:42;5.70;99.90
32428;DHT22;18882;50.952;4.366;2022-11-20T05:41:19;5.70;99.90
32428;DHT22;18882;50.952;4.366;2022-11-20T05:43:46;5.70;99.90
32428;DHT22;18882;50.952;4.366;2022-11-20T05:46:14;5.70;99.90
32428;DHT22;18882;50.952;4.366;2022-11-20T05:48:41;5.40;99.90
32428;DHT22;18882;50.952;4.366;2022-11-20T05:51:09;5.40;99.90
32428;DHT22;18882;50.952;4.366;2022-11-20T05:53:35;5.50;99.90
32428;DHT22;18882;50.952;4.366;2022-11-20T05:56:09;5.60;99.90
32428;DHT22;18882;50.952;4.366;2022-11-20T05:58:35;5.80;99.90
32428;DHT22;18882;50.952;4.366;2022-11-20T06:01:05;5.80;99.90
32428;DHT22;18882;50.952;4.366;2022-11-20T06:03:31;5.80;99.90
32428;DHT22;18882;50.952;4.366;2022-11-20T06:05:59;5.80;99.90
32428;DHT22;18882;50.952;4.366;2022-11-20T06:08:24;5.70;99.90
32428;DHT22;18882;50.952;4.366;2022-11-20T06:10:50;5.70;99.90
32428;DHT22;18882;50.952;4.366;2022-11-20T06:13:15;5.70;99.90
32428;DHT22;18882;50.952;4.366;2022-11-20T06:15:41;5.80;99.90
32428;DHT22;18882;50.952;4.366;2022-11-20T06:18:07;5.90;99.90
32428;DHT22;18882;50.952;4.366;2022-11-20T06:20:32;5.80;99.90
32428;DHT22;18882;50.952;4.366;2022-11-20T06:22:58;5.90;99.90
32428;DHT22;18882;50.952;4.366;2022-11-20T06:25:23;5.90;99.90
32428;DHT22;18882;50.952;4.366;2022-11-20T06:27:49;5.90;99.90
32428;DHT22;18882;50.952;4.366;2022-11-20T06:30:15;6.00;99.90
32428;DHT22;18882;50.952;4.366;2022-11-20T06:32:40;6.00;99.90
32428;DHT22;18882;50.952;4.366;2022-11-20T06:35:06;6.00;99.90
32428;DHT22;18882;50.952;4.366;2022-11-20T06:37:32;5.90;99.90
32428;DHT22;18882;50.952;4.366;2022-11-20T06:39:57;5.90;99.90
32428;DHT22;18882;50.952;4.366;2022-11-20T06:42:23;6.10;99.90
32428;DHT22;18882;50.952;4.366;2022-11-20T06:44:49;6.10;99.90
32428;DHT22;18882;50.952;4.366;2022-11-20T06:47:14;6.20;99.90
32428;DHT22;18882;50.952;4.366;2022-11-20T06:49:40;6.20;99.90
32428;DHT22;18882;50.952;4.366;2022-11-20T06:52:05;6.30;99.90
32428;DHT22;18882;50.952;4.366;2022-11-20T06:54:31;6.40;99.90
32428;DHT22;18882;50.952;4.366;2022-11-20T06:56:57;6.40;99.90
32428;DHT22;18882;50.952;4.366;2022-11-20T06:59:22;6.50;99.90
32428;DHT22;18882;50.952;4.366;2022-11-20T07:01:48;6.40;99.90
32428;DHT22;18882;50.952;4.366;2022-11-20T07:04:13;6.40;99.90
32428;DHT22;18882;50.952;4.366;2022-11-20T07:06:39;6.40;99.90
32428;DHT22;18882;50.952;4.366;2022-11-20T07:09:05;6.40;99.90
32428;DHT22;18882;50.952;4.366;2022-11-20T07:11:30;6.50;99.90
32428;DHT22;18882;50.952;4.366;2022-11-20T07:13:56;6.60;99.90
32428;DHT22;18882;50.952;4.366;2022-11-20T07:16:22;6.60;99.90
32428;DHT22;18882;50.952;4.366;2022-11-20T07:18:48;6.60;99.90
32428;DHT22;18882;50.952;4.366;2022-11-20T07:21:13;6.80;99.90
32428;DHT22;18882;50.952;4.366;2022-11-20T07:23:39;6.80;99.90
32428;DHT22;18882;50.952;4.366;2022-11-20T07:26:07;6.80;99.90
32428;DHT22;18882;50.952;4.366;2022-11-20T07:28:33;6.80;99.90
32428;DHT22;18882;50.952;4.366;2022-11-20T07:30:58;6.40;99.90
32428;DHT22;18882;50.952;4.366;2022-11-20T07:33:24;6.40;99.90
32428;DHT22;18882;50.952;4.366;2022-11-20T07:35:50;6.50;99.90
32428;DHT22;18882;50.952;4.366;2022-11-20T07:38:15;6.50;99.90
32428;DHT22;18882;50.952;4.366;2022-11-20T07:40:41;6.60;99.90
32428;DHT22;18882;50.952;4.366;2022-11-20T07:43:07;6.70;99.90
32428;DHT22;18882;50.952;4.366;2022-11-20T07:45:32;6.70;99.90
32428;DHT22;18882;50.952;4.366;2022-11-20T07:47:58;6.60;99.90
32428;DHT22;18882;50.952;4.366;2022-11-20T07:50:23;6.70;99.90
32428;DHT22;18882;50.952;4.366;2022-11-20T07:52:49;6.70;99.90
32428;DHT22;18882;50.952;4.366;2022-11-20T07:55:15;6.60;99.90
32428;DHT22;18882;50.952;4.366;2022-11-20T07:57:41;6.60;99.90
32428;DHT22;18882;50.952;4.366;2022-11-20T08:00:09;6.70;99.90
32428;DHT22;18882;50.952;4.366;2022-11-20T08:02:39;6.50;99.90
32428;DHT22;18882;50.952;4.366;2022-11-20T08:05:06;6.20;99.90
32428;DHT22;18882;50.952;4.366;2022-11-20T08:07:39;6.20;99.90
32428;DHT22;18882;50.952;4.366;2022-11-20T08:10:06;6.50;99.90
32428;DHT22;18882;50.952;4.366;2022-11-20T08:12:32;6.60;99.90
32428;DHT22;18882;50.952;4.366;2022-11-20T08:15:16;6.80;99.90
32428;DHT22;18882;50.952;4.366;2022-11-20T08:17:41;6.90;99.90
32428;DHT22;18882;50.952;4.366;2022-11-20T08:20:08;6.90;99.90
32428;DHT22;18882;50.952;4.366;2022-11-20T08:22:33;6.90;99.90
32428;DHT22;18882;50.952;4.366;2022-11-20T08:24:59;7.00;99.90
32428;DHT22;18882;50.952;4.366;2022-11-20T08:27:25;7.10;99.90
32428;DHT22;18882;50.952;4.366;2022-11-20T08:29:50;7.20;99.90
32428;DHT22;18882;50.952;4.366;2022-11-20T08:32:16;7.20;99.90
32428;DHT22;18882;50.952;4.366;2022-11-20T08:34:41;7.40;99.90
32428;DHT22;18882;50.952;4.366;2022-11-20T08:37:07;7.50;99.90
32428;DHT22;18882;50.952;4.366;2022-11-20T08:39:33;7.50;99.90
32428;DHT22;18882;50.952;4.366;2022-11-20T08:41:58;7.30;99.90
32428;DHT22;18882;50.952;4.366;2022-11-20T08:44:24;7.20;99.90
32428;DHT22;18882;50.952;4.366;2022-11-20T08:46:49;7.20;99.90
32428;DHT22;18882;50.952;4.366;2022-11-20T08:49:16;7.10;99.90
32428;DHT22;18882;50.952;4.366;2022-11-20T08:51:43;7.20;99.90
32428;DHT22;18882;50.952;4.366;2022-11-20T08:54:09;7.20;99.90
32428;DHT22;18882;50.952;4.366;2022-11-20T08:56:34;7.30;99.90
32428;DHT22;18882;50.952;4.366;2022-11-20T08:59:00;7.40;99.90
32428;DHT22;18882;50.952;4.366;2022-11-20T09:01:27;7.40;99.90
32428;DHT22;18882;50.952;4.366;2022-11-20T09:03:55;7.50;99.90
32428;DHT22;18882;50.952;4.366;2022-11-20T09:06:22;7.70;99.90
32428;DHT22;18882;50.952;4.366;2022-11-20T09:08:51;7.70;99.90
32428;DHT22;18882;50.952;4.366;2022-11-20T09:11:16;7.70;99.90
32428;DHT22;18882;50.952;4.366;2022-11-20T09:13:42;7.90;99.90
32428;DHT22;18882;50.952;4.366;2022-11-20T09:16:08;8.00;99.90
32428;DHT22;18882;50.952;4.366;2022-11-20T09:18:35;8.10;99.90
32428;DHT22;18882;50.952;4.366;2022-11-20T09:21:11;8.00;99.90
32428;DHT22;18882;50.952;4.366;2022-11-20T09:23:38;8.20;99.90
32428;DHT22;18882;50.952;4.366;2022-11-20T09:26:12;8.10;99.90
32428;DHT22;18882;50.952;4.366;2022-11-20T09:28:38;8.10;99.90
32428;DHT22;18882;50.952;4.366;2022-11-20T09:31:08;8.10;99.90
32428;DHT22;18882;50.952;4.366;2022-11-20T09:33:35;8.20;99.90
32428;DHT22;18882;50.952;4.366;2022-11-20T09:36:00;8.20;99.90
32428;DHT22;18882;50.952;4.366;2022-11-20T09:38:26;8.30;99.90
32428;DHT22;18882;50.952;4.366;2022-11-20T09:41:19;8.40;99.90
32428;DHT22;18882;50.952;4.366;2022-11-20T09:44:01;8.50;99.90
32428;DHT22;18882;50.952;4.366;2022-11-20T09:46:37;8.60;99.90
32428;DHT22;18882;50.952;4.366;2022-11-20T09:54:36;8.90;99.90
32428;DHT22;18882;50.952;4.366;2022-11-20T09:57:08;8.90;99.90
32428;DHT22;18882;50.952;4.366;2022-11-20T09:59:43;8.90;99.90
32428;DHT22;18882;50.952;4.366;2022-11-20T10:02:15;9.00;99.90
32428;DHT22;18882;50.952;4.366;2022-11-20T10:04:47;9.10;99.90
32428;DHT22;18882;50.952;4.366;2022-11-20T10:07:17;9.10;99.90
32428;DHT22;18882;50.952;4.366;2022-11-20T10:09:51;9.10;99.90
32428;DHT22;18882;50.952;4.366;2022-11-20T10:12:33;9.00;99.90
32428;DHT22;18882;50.952;4.366;2022-11-20T10:26:56;9.20;99.90
32428;DHT22;18882;50.952;4.366;2022-11-20T10:29:32;9.20;99.90
32428;DHT22;18882;50.952;4.366;2022-11-20T10:32:07;9.30;99.90
32428;DHT22;18882;50.952;4.366;2022-11-20T10:37:17;9.50;99.90
32428;DHT22;18882;50.952;4.366;2022-11-20T10:42:34;9.60;99.90
32428;DHT22;18882;50.952;4.366;2022-11-20T10:47:41;9.60;99.90
32428;DHT22;18882;50.952;4.366;2022-11-20T10:50:13;9.60;99.90
32428;DHT22;18882;50.952;4.366;2022-11-20T10:58:37;9.70;99.90
32428;DHT22;18882;50.952;4.366;2022-11-20T11:03:39;9.60;99.90
32428;DHT22;18882;50.952;4.366;2022-11-20T11:08:37;9.70;99.90
32428;DHT22;18882;50.952;4.366;2022-11-20T11:11:23;9.70;99.90
32428;DHT22;18882;50.952;4.366;2022-11-20T11:13:49;9.70;99.90
32428;DHT22;18882;50.952;4.366;2022-11-20T11:16:26;9.80;99.90
32428;DHT22;18882;50.952;4.366;2022-11-20T11:19:13;9.70;99.90
32428;DHT22;18882;50.952;4.366;2022-11-20T11:21:53;9.80;99.90
32428;DHT22;18882;50.952;4.366;2022-11-20T11:24:28;9.70;99.90
32428;DHT22;18882;50.952;4.366;2022-11-20T11:26:59;9.70;99.90
32428;DHT22;18882;50.952;4.366;2022-11-20T11:29:30;9.80;99.90
32428;DHT22;18882;50.952;4.366;2022-11-20T11:34:36;10.00;99.90
32428;DHT22;18882;50.952;4.366;2022-11-20T11:37:03;10.00;99.90
32428;DHT22;18882;50.952;4.366;2022-11-20T11:39:31;9.90;99.90
32428;DHT22;18882;50.952;4.366;2022-11-20T11:42:00;10.00;99.90
32428;DHT22;18882;50.952;4.366;2022-11-20T11:44:33;9.70;99.90
32428;DHT22;18882;50.952;4.366;2022-11-20T11:47:26;9.80;99.90
32428;DHT22;18882;50.952;4.366;2022-11-20T11:50:22;9.80;99.90
32428;DHT22;18882;50.952;4.366;2022-11-20T11:55:34;10.00;99.90
32428;DHT22;18882;50.952;4.366;2022-11-20T12:00:57;9.90;99.90
32428;DHT22;18882;50.952;4.366;2022-11-20T12:03:35;10.00;99.90
32428;DHT22;18882;50.952;4.366;2022-11-20T12:06:08;10.00;99.90
32428;DHT22;18882;50.952;4.366;2022-11-20T12:08:59;9.90;99.90
32428;DHT22;18882;50.952;4.366;2022-11-20T12:14:35;9.80;99.90
32428;DHT22;18882;50.952;4.366;2022-11-20T12:17:02;9.90;99.90
32428;DHT22;18882;50.952;4.366;2022-11-20T12:19:33;9.90;99.90
32428;DHT22;18882;50.952;4.366;2022-11-20T12:22:25;9.70;99.90
32428;DHT22;18882;50.952;4.366;2022-11-20T12:25:30;9.60;99.90
32428;DHT22;18882;50.952;4.366;2022-11-20T12:28:18;9.60;99.90
32428;DHT22;18882;50.952;4.366;2022-11-20T12:36:40;9.30;99.90
32428;DHT22;18882;50.952;4.366;2022-11-20T12:39:18;9.20;99.90
32428;DHT22;18882;50.952;4.366;2022-11-20T12:53:07;9.20;99.90
32428;DHT22;18882;50.952;4.366;2022-11-20T12:55:49;9.20;99.90
32428;DHT22;18882;50.952;4.366;2022-11-20T12:58:53;9.30;99.90
32428;DHT22;18882;50.952;4.366;2022-11-20T13:06:39;9.20;99.90
32428;DHT22;18882;50.952;4.366;2022-11-20T13:09:09;9.30;99.90
32428;DHT22;18882;50.952;4.366;2022-11-20T13:12:06;9.30;99.90
32428;DHT22;18882;50.952;4.366;2022-11-20T13:14:42;9.30;99.90
32428;DHT22;18882;50.952;4.366;2022-11-20T13:17:26;9.30;99.90
32428;DHT22;18882;50.952;4.366;2022-11-20T13:19:56;9.50;99.90
32428;DHT22;18882;50.952;4.366;2022-11-20T13:22:28;9.30;99.90
32428;DHT22;18882;50.952;4.366;2022-11-20T13:24:54;9.30;99.90
32428;DHT22;18882;50.952;4.366;2022-11-20T13:27:23;9.20;99.90
32428;DHT22;18882;50.952;4.366;2022-11-20T13:30:02;9.10;99.90
32428;DHT22;18882;50.952;4.366;2022-11-20T13:32:28;9.10;99.90
32428;DHT22;18882;50.952;4.366;2022-11-20T13:35:02;9.10;99.90
32428;DHT22;18882;50.952;4.366;2022-11-20T13:37:34;9.10;99.90
32428;DHT22;18882;50.952;4.366;2022-11-20T13:42:39;9.00;99.90
32428;DHT22;18882;50.952;4.366;2022-11-20T13:45:20;8.90;99.90
32428;DHT22;18882;50.952;4.366;2022-11-20T13:47:50;8.90;99.90
32428;DHT22;18882;50.952;4.366;2022-11-20T13:50:17;8.80;99.90
32428;DHT22;18882;50.952;4.366;2022-11-20T14:00:30;8.70;99.90
32428;DHT22;18882;50.952;4.366;2022-11-20T14:05:34;8.80;99.90
32428;DHT22;18882;50.952;4.366;2022-11-20T14:08:03;8.90;99.90
32428;DHT22;18882;50.952;4.366;2022-11-20T14:10:30;8.90;99.90
32428;DHT22;18882;50.952;4.366;2022-11-20T14:12:56;8.80;99.90
32428;DHT22;18882;50.952;4.366;2022-11-20T14:15:32;8.80;99.90
32428;DHT22;18882;50.952;4.366;2022-11-20T14:17:59;8.90;99.90
32428;DHT22;18882;50.952;4.366;2022-11-20T14:20:29;8.90;99.90
32428;DHT22;18882;50.952;4.366;2022-11-20T14:22:56;8.80;99.90
32428;DHT22;18882;50.952;4.366;2022-11-20T14:25:26;8.70;99.90
32428;DHT22;18882;50.952;4.366;2022-11-20T14:27:58;8.80;99.90
32428;DHT22;18882;50.952;4.366;2022-11-20T14:30:29;8.80;99.90
32428;DHT22;18882;50.952;4.366;2022-11-20T14:33:02;8.70;99.90
32428;DHT22;18882;50.952;4.366;2022-11-20T14:35:36;8.70;99.90
32428;DHT22;18882;50.952;4.366;2022-11-20T14:38:10;8.80;99.90
32428;DHT22;18882;50.952;4.366;2022-11-20T14:40:37;8.80;99.90
32428;DHT22;18882;50.952;4.366;2022-11-20T14:45:52;8.80;99.90
32428;DHT22;18882;50.952;4.366;2022-11-20T14:48:29;8.80;99.90
32428;DHT22;18882;50.952;4.366;2022-11-20T14:50:56;8.80;99.90
32428;DHT22;18882;50.952;4.366;2022-11-20T14:53:25;8.80;99.90
32428;DHT22;18882;50.952;4.366;2022-11-20T14:55:59;8.70;99.90
32428;DHT22;18882;50.952;4.366;2022-11-20T14:58:28;8.70;99.90
32428;DHT22;18882;50.952;4.366;2022-11-20T15:01:04;8.70;99.90
32428;DHT22;18882;50.952;4.366;2022-11-20T15:03:40;8.70;99.90
32428;DHT22;18882;50.952;4.366;2022-11-20T15:06:07;8.80;99.90
32428;DHT22;18882;50.952;4.366;2022-11-20T15:08:35;8.80;99.90
32428;DHT22;18882;50.952;4.366;2022-11-20T15:11:01;8.90;99.90
32428;DHT22;18882;50.952;4.366;2022-11-20T15:13:36;8.80;99.90
32428;DHT22;18882;50.952;4.366;2022-11-20T15:16:04;8.80;99.90
32428;DHT22;18882;50.952;4.366;2022-11-20T15:18:39;8.80;99.90
32428;DHT22;18882;50.952;4.366;2022-11-20T15:21:11;8.90;99.90
32428;DHT22;18882;50.952;4.366;2022-11-20T15:23:37;8.80;99.90
32428;DHT22;18882;50.952;4.366;2022-11-20T15:26:07;8.70;99.90
32428;DHT22;18882;50.952;4.366;2022-11-20T15:28:36;8.80;99.90
32428;DHT22;18882;50.952;4.366;2022-11-20T15:31:04;8.90;99.90
32428;DHT22;18882;50.952;4.366;2022-11-20T15:33:31;8.90;99.90
32428;DHT22;18882;50.952;4.366;2022-11-20T15:35:57;9.00;99.90
32428;DHT22;18882;50.952;4.366;2022-11-20T15:38:23;9.10;99.90
32428;DHT22;18882;50.952;4.366;2022-11-20T15:40:49;9.10;99.90
32428;DHT22;18882;50.952;4.366;2022-11-20T15:43:14;9.20;99.90
32428;DHT22;18882;50.952;4.366;2022-11-20T15:45:43;9.10;99.90
32428;DHT22;18882;50.952;4.366;2022-11-20T15:48:21;9.10;99.90
32428;DHT22;18882;50.952;4.366;2022-11-20T15:50:59;9.10;99.90
32428;DHT22;18882;50.952;4.366;2022-11-20T15:53:27;9.20;99.90
32428;DHT22;18882;50.952;4.366;2022-11-20T15:55:53;9.10;99.90
32428;DHT22;18882;50.952;4.366;2022-11-20T15:58:19;9.20;99.90
32428;DHT22;18882;50.952;4.366;2022-11-20T16:00:45;9.30;99.90
32428;DHT22;18882;50.952;4.366;2022-11-20T16:03:12;9.30;99.90
32428;DHT22;18882;50.952;4.366;2022-11-20T16:05:37;9.40;99.90
32428;DHT22;18882;50.952;4.366;2022-11-20T16:08:03;9.40;99.90
32428;DHT22;18882;50.952;4.366;2022-11-20T16:10:29;9.30;99.90
32428;DHT22;18882;50.952;4.366;2022-11-20T16:12:55;9.30;99.90
32428;DHT22;18882;50.952;4.366;2022-11-20T16:15:39;9.40;99.90
32428;DHT22;18882;50.952;4.366;2022-11-20T16:18:11;9.40;99.90
32428;DHT22;18882;50.952;4.366;2022-11-20T16:20:37;9.40;99.90
32428;DHT22;18882;50.952;4.366;2022-11-20T16:23:04;9.40;99.90
32428;DHT22;18882;50.952;4.366;2022-11-20T16:25:30;9.30;99.90
32428;DHT22;18882;50.952;4.366;2022-11-20T16:27:55;9.40;99.90
32428;DHT22;18882;50.952;4.366;2022-11-20T16:30:21;9.40;99.90
32428;DHT22;18882;50.952;4.366;2022-11-20T16:32:46;9.40;99.90
32428;DHT22;18882;50.952;4.366;2022-11-20T16:35:12;9.30;99.90
32428;DHT22;18882;50.952;4.366;2022-11-20T16:37:38;9.30;99.90
32428;DHT22;18882;50.952;4.366;2022-11-20T16:40:05;9.30;99.90
32428;DHT22;18882;50.952;4.366;2022-11-20T16:42:35;9.30;99.90
32428;DHT22;18882;50.952;4.366;2022-11-20T16:45:00;9.50;99.90
32428;DHT22;18882;50.952;4.366;2022-11-20T16:47:26;9.50;99.90
32428;DHT22;18882;50.952;4.366;2022-11-20T16:49:52;9.50;99.90
32428;DHT22;18882;50.952;4.366;2022-11-20T16:52:17;9.50;99.90
32428;DHT22;18882;50.952;4.366;2022-11-20T16:54:43;9.50;99.90
32428;DHT22;18882;50.952;4.366;2022-11-20T16:57:09;9.50;99.90
32428;DHT22;18882;50.952;4.366;2022-11-20T16:59:34;9.40;99.90
32428;DHT22;18882;50.952;4.366;2022-11-20T17:02:00;9.30;99.90
32428;DHT22;18882;50.952;4.366;2022-11-20T17:04:25;9.30;99.90
32428;DHT22;18882;50.952;4.366;2022-11-20T17:06:51;9.30;99.90
32428;DHT22;18882;50.952;4.366;2022-11-20T17:09:17;9.20;99.90
32428;DHT22;18882;50.952;4.366;2022-11-20T17:11:42;9.30;99.90
32428;DHT22;18882;50.952;4.366;2022-11-20T17:14:10;9.30;99.90
32428;DHT22;18882;50.952;4.366;2022-11-20T17:16:36;9.40;99.90
32428;DHT22;18882;50.952;4.366;2022-11-20T17:19:02;9.40;99.90
32428;DHT22;18882;50.952;4.366;2022-11-20T17:21:31;9.40;99.90
32428;DHT22;18882;50.952;4.366;2022-11-20T17:23:59;9.30;99.90
32428;DHT22;18882;50.952;4.366;2022-11-20T17:26:26;9.30;99.90
32428;DHT22;18882;50.952;4.366;2022-11-20T17:28:55;9.20;99.90
32428;DHT22;18882;50.952;4.366;2022-11-20T17:31:21;8.90;99.90